createdAt,value
2023-02-28T00:00:18.515Z,2.3
2023-02-28T00:03:20.543Z,2.1
2023-02-28T00:06:22.447Z,2.4
2023-02-28T00:09:24.409Z,2.5
2023-02-28T00:12:26.389Z,2.8
2023-02-28T00:15:28.336Z,2.6
2023-02-28T00:18:31.537Z,3
2023-02-28T00:21:32.355Z,2.5
2023-02-28T00:24:34.227Z,2.7
2023-02-28T00:27:36.316Z,2.4
2023-02-28T00:30:38.236Z,2.7
2023-02-28T00:33:40.115Z,2.5
2023-02-28T00:36:42.070Z,2.6
2023-02-28T00:39:44.051Z,2.9
2023-02-28T00:42:45.974Z,2.6
2023-02-28T00:45:47.988Z,2.8
2023-02-28T00:48:49.914Z,2.9
2023-02-28T00:51:51.843Z,3
2023-02-28T00:54:53.814Z,3.1
2023-02-28T00:57:55.788Z,2.9
2023-02-28T01:00:57.769Z,3.2
2023-02-28T01:03:59.721Z,3.5
2023-02-28T01:07:01.678Z,2.9
2023-02-28T01:10:03.639Z,3.4
2023-02-28T01:13:05.598Z,3.2
2023-02-28T01:16:07.613Z,3.2
2023-02-28T01:19:09.541Z,3.6
2023-02-28T01:22:11.494Z,3.7
2023-02-28T01:25:13.523Z,3.5
2023-02-28T01:28:15.438Z,3.3
2023-02-28T01:31:17.451Z,3.2
2023-02-28T01:34:19.356Z,3.3
2023-02-28T01:37:21.323Z,3.4
2023-02-28T01:40:23.286Z,3.9
2023-02-28T01:43:25.326Z,3.3
2023-02-28T01:46:27.266Z,3.5
2023-02-28T01:49:29.185Z,3.1
2023-02-28T01:52:31.148Z,3
2023-02-28T01:55:33.113Z,3.7
2023-02-28T01:58:35.066Z,3.6
2023-02-28T02:01:37.096Z,3.5
2023-02-28T02:04:39.001Z,3.9
2023-02-28T02:07:40.966Z,3.2
2023-02-28T02:10:42.925Z,3.2
2023-02-28T02:13:44.900Z,4
2023-02-28T02:16:46.856Z,3.4
2023-02-28T02:19:48.798Z,3.8
2023-02-28T02:22:50.752Z,3.3
2023-02-28T02:25:52.725Z,4
2023-02-28T02:28:54.687Z,3.6
2023-02-28T02:31:56.789Z,3.7
2023-02-28T02:34:58.623Z,3.9
2023-02-28T02:38:00.602Z,3.4
2023-02-28T02:41:02.546Z,3.8
2023-02-28T02:44:04.513Z,3.5
2023-02-28T02:47:06.470Z,3.7
2023-02-28T02:50:08.432Z,3
2023-02-28T02:53:10.386Z,3.4
2023-02-28T02:56:12.364Z,3.6
2023-02-28T02:59:14.337Z,3.5
2023-02-28T03:02:16.299Z,3.3
2023-02-28T03:05:18.252Z,4
2023-02-28T03:08:20.223Z,3.2
2023-02-28T03:11:22.180Z,3.6
2023-02-28T03:14:24.152Z,4
2023-02-28T03:17:26.141Z,3.3
2023-02-28T03:20:28.080Z,3.6
2023-02-28T03:23:30.052Z,3.8
2023-02-28T03:26:32.005Z,3.6
2023-02-28T03:29:33.972Z,3.6
2023-02-28T03:32:35.996Z,3.4
2023-02-28T03:35:38.002Z,3.6
2023-02-28T03:38:39.867Z,3.2
2023-02-28T03:41:41.804Z,3.3
2023-02-28T03:44:43.812Z,3.2
2023-02-28T03:47:45.817Z,3.8
2023-02-28T03:50:47.751Z,3.2
2023-02-28T03:53:49.712Z,3.7
2023-02-28T03:56:51.674Z,3.7
2023-02-28T03:59:53.628Z,3.8
2023-02-28T04:02:55.600Z,3.8
2023-02-28T04:05:57.553Z,3.9
2023-02-28T04:08:59.536Z,3.6
2023-02-28T04:12:01.475Z,3.8
2023-02-28T04:15:03.457Z,3.8
2023-02-28T04:18:05.421Z,3.6
2023-02-28T04:21:07.372Z,3.6
2023-02-28T04:24:09.336Z,3.8
2023-02-28T04:27:11.290Z,4
2023-02-28T04:30:13.257Z,4
2023-02-28T04:33:15.225Z,3.7
2023-02-28T04:36:17.208Z,3.8
2023-02-28T04:39:19.325Z,4
2023-02-28T04:42:21.123Z,4.2
2023-02-28T04:45:23.100Z,4
2023-02-28T04:48:25.063Z,4
2023-02-28T04:51:27.311Z,3.9
2023-02-28T04:54:28.974Z,3.5
2023-02-28T04:57:30.926Z,3.7
2023-02-28T05:00:32.921Z,3.7
2023-02-28T05:03:34.869Z,3.9
2023-02-28T05:06:36.810Z,3.5
2023-02-28T05:09:38.780Z,3.5
2023-02-28T05:12:40.732Z,3.6
2023-02-28T05:15:42.698Z,3.8
2023-02-28T05:18:44.702Z,4.1
2023-02-28T05:21:46.623Z,3.4
2023-02-28T05:24:48.594Z,3.6
2023-02-28T05:27:50.535Z,3.1
2023-02-28T05:30:52.509Z,3.3
2023-02-28T05:33:54.472Z,3.2
2023-02-28T05:36:56.407Z,3.6
2023-02-28T05:39:58.381Z,3.7
2023-02-28T05:43:00.339Z,3.4
2023-02-28T05:46:02.359Z,3.5
2023-02-28T05:49:04.298Z,3.4
2023-02-28T05:52:06.236Z,3
2023-02-28T05:55:08.180Z,3.4
2023-02-28T05:58:10.137Z,3.3
2023-02-28T06:01:12.099Z,2.9
2023-02-28T06:04:25.745Z,3.2
2023-02-28T06:07:16.012Z,3.6
2023-02-28T06:10:17.990Z,3.6
2023-02-28T06:13:19.935Z,3.5
2023-02-28T06:16:22.001Z,3.3
2023-02-28T06:19:23.888Z,3.3
2023-02-28T06:22:25.825Z,3.2
2023-02-28T06:25:27.781Z,3.3
2023-02-28T06:28:29.738Z,3.7
2023-02-28T06:31:32.038Z,3.2
2023-02-28T06:34:33.642Z,3.8
2023-02-28T06:37:35.604Z,3.5
2023-02-28T06:40:37.580Z,3.5
2023-02-28T06:43:39.548Z,3.3
2023-02-28T06:46:41.511Z,4.1
2023-02-28T06:49:43.475Z,3.8
2023-02-28T06:52:45.461Z,3.5
2023-02-28T06:55:47.422Z,3.5
2023-02-28T06:58:49.563Z,4.8
2023-02-28T07:01:51.372Z,2.9
2023-02-28T07:04:53.343Z,3.4
2023-02-28T07:07:55.260Z,3.6
2023-02-28T07:10:57.220Z,3.1
2023-02-28T07:13:59.182Z,3.4
2023-02-28T07:17:01.132Z,3.4
2023-02-28T07:20:03.093Z,2.9
2023-02-28T07:23:05.054Z,3.3
2023-02-28T07:26:07.039Z,3.5
2023-02-28T07:29:08.985Z,3.5
2023-02-28T07:32:10.942Z,3.8
2023-02-28T07:35:12.901Z,3.6
2023-02-28T07:38:15.005Z,4.1
2023-02-28T07:41:16.846Z,3.6
2023-02-28T07:44:18.819Z,3.6
2023-02-28T07:47:20.787Z,3.9
2023-02-28T07:50:22.727Z,3.8
2023-02-28T07:53:24.710Z,3.6
2023-02-28T07:56:26.791Z,3.8
2023-02-28T07:59:30.605Z,4
2023-02-28T08:02:30.589Z,3.7
2023-02-28T08:05:32.592Z,3.2
2023-02-28T08:08:34.532Z,3.6
2023-02-28T08:11:36.469Z,3.2
2023-02-28T08:14:38.425Z,3.4
2023-02-28T08:17:40.397Z,3.2
2023-02-28T08:20:42.329Z,3.4
2023-02-28T08:23:44.301Z,3.2
2023-02-28T08:26:46.270Z,3.3
2023-02-28T08:29:48.215Z,3.7
2023-02-28T08:32:50.228Z,2.9
2023-02-28T08:35:52.175Z,2.8
2023-02-28T08:38:54.110Z,3
2023-02-28T08:42:06.873Z,3.2
2023-02-28T08:44:58.027Z,3.1
2023-02-28T08:47:59.997Z,3.1
2023-02-28T08:51:07.518Z,2.8
2023-02-28T08:54:03.914Z,3
2023-02-28T08:57:05.876Z,3.1
2023-02-28T09:00:07.850Z,2.9
2023-02-28T09:03:09.806Z,3
2023-02-28T09:06:11.792Z,3
2023-02-28T09:09:13.727Z,3
2023-02-28T09:12:15.693Z,3.4
2023-02-28T09:15:17.652Z,3
2023-02-28T09:18:19.623Z,2.9
2023-02-28T09:21:21.599Z,4.3
2023-02-28T09:24:23.572Z,3.1
2023-02-28T09:27:25.540Z,3.8
2023-02-28T09:30:27.588Z,2.9
2023-02-28T09:33:29.474Z,2.9
2023-02-28T09:36:43.412Z,3.2
2023-02-28T09:39:33.497Z,3.2
2023-02-28T09:42:35.376Z,3.1
2023-02-28T09:45:37.331Z,3.1
2023-02-28T09:48:41.080Z,3
2023-02-28T09:51:41.277Z,3.4
2023-02-28T09:54:43.249Z,3.4
2023-02-28T09:57:45.209Z,3.2
2023-02-28T10:00:47.156Z,3
2023-02-28T10:03:49.132Z,3.4
2023-02-28T10:06:51.084Z,3.5
2023-02-28T10:09:53.041Z,3.2
2023-02-28T10:12:55.027Z,3.4
2023-02-28T10:15:57.091Z,3.7
2023-02-28T10:18:58.933Z,3.2
2023-02-28T10:22:00.918Z,3.5
2023-02-28T10:25:03.192Z,3.3
2023-02-28T10:28:04.828Z,3.1
2023-02-28T10:31:06.815Z,3.3
2023-02-28T10:34:09.044Z,3
2023-02-28T10:37:10.731Z,3
2023-02-28T10:40:12.671Z,3.4
2023-02-28T10:43:14.628Z,3.6
2023-02-28T10:46:16.669Z,3.2
2023-02-28T10:49:18.544Z,3.2
2023-02-28T10:52:20.512Z,3.6
2023-02-28T10:55:22.486Z,3.1
2023-02-28T10:58:24.456Z,3.3
2023-02-28T11:01:26.454Z,3.4
2023-02-28T11:04:28.449Z,3.2
2023-02-28T11:07:33.845Z,3.3
2023-02-28T11:10:32.337Z,3.3
2023-02-28T11:13:34.293Z,3.1
2023-02-28T11:16:36.260Z,3.1
2023-02-28T11:19:38.215Z,3.1
2023-02-28T11:22:40.181Z,3.4
2023-02-28T11:25:42.150Z,3.5
2023-02-28T11:28:44.114Z,3.3
2023-02-28T11:31:46.208Z,3.2
2023-02-28T11:34:48.052Z,3.2
2023-02-28T11:37:50.001Z,3.9
2023-02-28T11:40:51.997Z,3.6
2023-02-28T11:43:53.928Z,4
2023-02-28T11:46:55.940Z,4.1
2023-02-28T11:49:57.871Z,3.4
2023-02-28T11:52:59.837Z,4.3
2023-02-28T11:56:02.047Z,4
2023-02-28T11:59:03.763Z,4
2023-02-28T12:02:05.806Z,4.3
2023-02-28T12:05:07.967Z,4.9
2023-02-28T12:08:09.642Z,4.2
2023-02-28T12:11:11.628Z,3.9
2023-02-28T12:14:13.580Z,4.3
2023-02-28T12:17:15.557Z,4.3
2023-02-28T12:20:17.630Z,4.1
2023-02-28T12:23:19.489Z,3.6
2023-02-28T12:26:21.475Z,4
2023-02-28T12:29:23.442Z,4
2023-02-28T12:32:25.572Z,4.4
2023-02-28T12:35:27.352Z,4.4
2023-02-28T12:38:29.465Z,4.4
2023-02-28T12:41:31.927Z,3.7
2023-02-28T12:44:34.574Z,4.9
2023-02-28T12:47:35.640Z,4.6
2023-02-28T12:50:37.658Z,4.8
2023-02-28T12:53:39.680Z,4.4
2023-02-28T12:56:41.672Z,4.7
2023-02-28T12:59:43.632Z,3.9
2023-02-28T13:02:45.650Z,4.7
2023-02-28T13:05:47.549Z,5
2023-02-28T13:08:49.510Z,4.3
2023-02-28T13:11:51.468Z,4.7
2023-02-28T13:14:53.424Z,4.4
2023-02-28T13:17:55.427Z,4.1
2023-02-28T13:20:57.405Z,4.2
2023-02-28T13:23:59.461Z,4.8
2023-02-28T13:27:01.575Z,4.5
2023-02-28T13:30:03.519Z,4.2
2023-02-28T13:33:05.560Z,4.2
2023-02-28T13:36:07.535Z,4.2
2023-02-28T13:39:09.496Z,4.7
2023-02-28T13:42:11.455Z,4.3
2023-02-28T13:45:13.454Z,4.7
2023-02-28T13:48:15.441Z,4.5
2023-02-28T13:51:17.428Z,4.5
2023-02-28T13:54:19.407Z,4.9
2023-02-28T13:57:21.498Z,4.1
2023-02-28T14:00:23.302Z,3.6
2023-02-28T14:03:25.399Z,4.3
2023-02-28T14:06:27.413Z,4.4
2023-02-28T14:09:29.287Z,4.7
2023-02-28T14:12:31.266Z,4.6
2023-02-28T14:15:33.401Z,4.8
2023-02-28T14:18:35.261Z,4.6
2023-02-28T14:21:37.229Z,4.4
2023-02-28T14:24:39.171Z,4.8
2023-02-28T14:27:41.148Z,4.4
2023-02-28T14:30:43.100Z,4.7
2023-02-28T14:33:45.054Z,4.5
2023-02-28T14:36:47.038Z,4.3
2023-02-28T14:39:48.990Z,4.6
2023-02-28T14:42:50.971Z,4.4
2023-02-28T14:45:52.928Z,4.4
2023-02-28T14:48:54.861Z,4.3
2023-02-28T14:51:56.852Z,4.1
2023-02-28T14:54:58.790Z,4.2
2023-02-28T14:58:00.753Z,4.8
2023-02-28T15:01:02.718Z,4.7
2023-02-28T15:04:04.712Z,3.9
2023-02-28T15:07:06.659Z,4.4
2023-02-28T15:10:08.605Z,4.1
2023-02-28T15:13:10.584Z,4.4
2023-02-28T15:16:12.581Z,4.4
2023-02-28T15:19:14.503Z,4.8
2023-02-28T15:22:16.473Z,4.4
2023-02-28T15:25:18.436Z,3.8
2023-02-28T15:28:20.410Z,4.6
2023-02-28T15:31:22.411Z,4.5
2023-02-28T15:34:26.413Z,5
2023-02-28T15:37:26.290Z,4.6
2023-02-28T15:40:28.238Z,4.4
2023-02-28T15:43:30.230Z,5.1
2023-02-28T15:46:32.175Z,5.3
2023-02-28T15:49:40.033Z,4.6
2023-02-28T15:52:36.090Z,4.3
2023-02-28T15:55:38.068Z,4.6
2023-02-28T15:58:40.028Z,4.9
2023-02-28T16:01:41.995Z,4.3
2023-02-28T16:04:43.915Z,4.6
2023-02-28T16:07:45.885Z,4.6
2023-02-28T16:10:47.844Z,4.2
2023-02-28T16:13:49.811Z,4.5
2023-02-28T16:16:51.816Z,4.9
2023-02-28T16:19:53.716Z,5.2
2023-02-28T16:22:55.677Z,4.2
2023-02-28T16:25:57.662Z,4.5
2023-02-28T16:28:59.624Z,5.1
2023-02-28T16:32:01.622Z,4.6
2023-02-28T16:35:03.545Z,5.3
2023-02-28T16:38:05.509Z,4.7
2023-02-28T16:41:07.477Z,4.7
2023-02-28T16:44:09.423Z,4.5
2023-02-28T16:47:11.398Z,4.6
2023-02-28T16:50:13.346Z,4.9
2023-02-28T16:53:15.315Z,4.4
2023-02-28T16:56:17.277Z,4.7
2023-02-28T16:59:19.278Z,4.5
2023-02-28T17:02:21.431Z,4.8
2023-02-28T17:05:23.193Z,5
2023-02-28T17:08:25.196Z,5
2023-02-28T17:11:27.080Z,4.4
2023-02-28T17:14:29.042Z,4.8
2023-02-28T17:17:31.115Z,4.5
2023-02-28T17:20:32.985Z,4.7
2023-02-28T17:23:34.948Z,4.5
2023-02-28T17:26:36.902Z,4.8
2023-02-28T17:29:38.870Z,4.5
2023-02-28T17:32:40.850Z,4.5
2023-02-28T17:35:42.795Z,4.9
2023-02-28T17:38:44.752Z,4.8
2023-02-28T17:41:46.715Z,4.4
2023-02-28T17:44:48.683Z,5
2023-02-28T17:47:50.654Z,4.4
2023-02-28T17:50:52.619Z,4.4
2023-02-28T17:53:54.600Z,4.7
2023-02-28T17:56:56.590Z,4.7
2023-02-28T17:59:58.521Z,4.4
2023-02-28T18:03:00.540Z,5
2023-02-28T18:06:02.440Z,4.7
2023-02-28T18:09:04.414Z,4.5
2023-02-28T18:12:06.371Z,5.1
2023-02-28T18:15:08.332Z,5.3
2023-02-28T18:18:10.296Z,5.6
2023-02-28T18:21:12.252Z,5.7
2023-02-28T18:24:14.224Z,6.8
2023-02-28T18:27:16.174Z,6.3
2023-02-28T18:30:18.125Z,5.7
2023-02-28T18:33:20.107Z,6.1
2023-02-28T18:36:22.040Z,5.6
2023-02-28T18:39:24.009Z,5.3
2023-02-28T18:42:25.988Z,5.6
2023-02-28T18:45:27.941Z,5.1
2023-02-28T18:48:29.907Z,5.7
2023-02-28T18:51:31.851Z,5.5
2023-02-28T18:54:33.807Z,5.8
2023-02-28T18:57:35.774Z,5.8
2023-02-28T19:00:37.758Z,5.2
2023-02-28T19:03:39.752Z,6.1
2023-02-28T19:06:41.640Z,5.7
2023-02-28T19:09:43.641Z,6.4
2023-02-28T19:12:45.595Z,5.6
2023-02-28T19:15:47.542Z,5.8
2023-02-28T19:18:49.538Z,6
2023-02-28T19:21:51.694Z,6.5
2023-02-28T19:24:53.465Z,5.8
2023-02-28T19:27:55.412Z,6.4
2023-02-28T19:30:57.445Z,5.3
2023-02-28T19:33:59.332Z,5.9
2023-02-28T19:37:01.316Z,6.5
2023-02-28T19:40:03.272Z,6
2023-02-28T19:43:06.009Z,5.9
2023-02-28T19:46:07.234Z,5.7
2023-02-28T19:49:09.132Z,6.2
2023-02-28T19:52:13.218Z,6.1
2023-02-28T19:55:13.076Z,6.5
2023-02-28T19:58:15.010Z,6.7
2023-02-28T20:01:17.034Z,5.9
2023-02-28T20:04:18.947Z,5.8
2023-02-28T20:07:20.893Z,6.6
2023-02-28T20:10:22.863Z,7.3
2023-02-28T20:13:27.959Z,6.4
2023-02-28T20:16:26.807Z,6.4
2023-02-28T20:19:28.758Z,6.5
2023-02-28T20:22:30.700Z,6.3
2023-02-28T20:25:32.703Z,7.3
2023-02-28T20:28:34.636Z,7.3
2023-02-28T20:31:36.601Z,6.7
2023-02-28T20:34:38.549Z,7
2023-02-28T20:37:40.537Z,6.7
2023-02-28T20:40:42.475Z,6.9
2023-02-28T20:43:44.437Z,7.4
2023-02-28T20:46:46.395Z,7.4
2023-02-28T20:49:48.363Z,8
2023-02-28T20:52:50.328Z,6.9
2023-02-28T20:55:52.281Z,7.5
2023-02-28T20:58:54.232Z,7.9
2023-02-28T21:01:56.213Z,7.2
2023-02-28T21:04:58.215Z,7.9
2023-02-28T21:08:00.152Z,7.4
2023-02-28T21:11:02.096Z,8.1
2023-02-28T21:14:04.071Z,7.4
2023-02-28T21:17:06.046Z,7.2
2023-02-28T21:20:08.010Z,7.7
2023-02-28T21:23:09.978Z,7.6
2023-02-28T21:26:11.944Z,8.5
2023-02-28T21:29:13.924Z,7.6
2023-02-28T21:32:15.954Z,7.6
2023-02-28T21:35:17.877Z,8.1
2023-02-28T21:38:19.927Z,7.4
2023-02-28T21:41:21.851Z,7.7
2023-02-28T21:44:23.817Z,7.9
2023-02-28T21:47:25.778Z,8.1
2023-02-28T21:50:27.741Z,7.9
2023-02-28T21:53:29.694Z,8.3
2023-02-28T21:56:31.850Z,8.2
2023-02-28T21:59:33.616Z,8.2
2023-02-28T22:02:35.612Z,9
2023-02-28T22:05:37.533Z,8.5
2023-02-28T22:08:39.501Z,8.1
2023-02-28T22:11:41.454Z,8.3
2023-02-28T22:14:43.413Z,9
2023-02-28T22:17:45.371Z,7.4
2023-02-28T22:20:47.571Z,8
2023-02-28T22:23:49.309Z,8.1
2023-02-28T22:26:51.333Z,8.7
2023-02-28T22:29:53.259Z,9.5
2023-02-28T22:32:55.224Z,8.8
2023-02-28T22:35:57.200Z,8.9
2023-02-28T22:38:59.131Z,8.6
2023-02-28T22:42:01.108Z,9.2
2023-02-28T22:45:03.044Z,8.7
2023-02-28T22:48:05.012Z,10.1
2023-02-28T22:51:07.016Z,9.3
2023-02-28T22:54:08.943Z,9.3
2023-02-28T22:57:10.917Z,8.6
2023-02-28T23:00:12.897Z,9
2023-02-28T23:03:14.872Z,10
2023-02-28T23:06:16.831Z,8.7
2023-02-28T23:09:18.767Z,8.5
2023-02-28T23:12:20.751Z,8
2023-02-28T23:15:22.723Z,9
2023-02-28T23:18:24.663Z,8.5
2023-02-28T23:21:26.640Z,8.7
2023-02-28T23:24:28.581Z,8
2023-02-28T23:27:30.578Z,9.6
2023-02-28T23:30:32.539Z,9.5
2023-02-28T23:33:34.474Z,9.9
2023-02-28T23:36:36.445Z,9.3
2023-02-28T23:39:38.397Z,10
2023-02-28T23:42:40.353Z,10.8
2023-02-28T23:45:42.354Z,9.9
2023-02-28T23:48:44.266Z,9.4
2023-02-28T23:51:46.230Z,8.7
2023-02-28T23:54:48.191Z,8.7
2023-02-28T23:57:50.152Z,9.5
